Time;durP1;ratioP1;P1;durP2;ratioP2;P2;SDS_P1;SDS_P2;PMS_P1;PMS_P2;Temp;Humidity;BMP_temperature;BMP_pressure;BME280_temperature;BME280_humidity;BME280_pressure;Samples;Min_cycle;Max_cycle;Signal;HPM_P1;HPM_P2
2021/12/19 00:11:11;;;;;;;;;;;;;;;-4.23;75.60;95368.41;6401914;27;20011;-63
2021/12/19 00:14:18;;;;;;;;;;;;;;;-4.20;75.45;95378.56;6402549;27;19923;-61
2021/12/19 00:17:19;;;;;;;;;;;;;;;-4.14;75.25;95373.25;6401517;27;19923;-63
2021/12/19 00:20:22;;;;;;;;;;;;;;;-4.17;75.63;95370.78;6402351;27;20017;-62
2021/12/19 00:23:27;;;;;;;;;;;;;;;-4.17;75.54;95357.94;6402013;27;19988;-62
2021/12/19 00:26:28;;;;;;;;;;;;;;;-4.14;75.01;95351.84;6401220;27;19923;-62
2021/12/19 00:29:32;;;;;;;;;;;;;;;-4.29;75.10;95348.06;6401815;27;19985;-62
2021/12/19 00:32:33;;;;;;;;;;;;;;;-4.29;75.25;95337.78;6401465;27;20040;-62
2021/12/19 00:35:34;;;;;;;;;;;;;;;-4.27;75.20;95336.00;6402075;27;19926;-62
2021/12/19 00:38:35;;;;;;;;;;;;;;;-4.17;75.44;95336.56;6401896;27;19923;-62
2021/12/19 00:41:40;;;;;;;;;;;;;;;-4.21;75.38;95340.94;6401789;27;19919;-62
2021/12/19 00:44:45;;;;;;;;;;;;;;;-4.27;75.36;95338.59;6401695;27;20296;-62
2021/12/19 00:47:48;;;;;;;;;;;;;;;-4.21;75.35;95332.41;6383411;27;20333;-61
2021/12/19 00:50:49;;;;;;;;;;;;;;;-4.13;75.54;95328.72;6400521;27;19922;-62
2021/12/19 00:53:55;;;;;;;;;;;;;;;-4.16;75.11;95318.53;6401352;27;19923;-62
2021/12/19 00:56:56;;;;;;;;;;;;;;;-4.19;74.90;95318.63;6400661;27;19929;-62
2021/12/19 00:59:57;;;;;;;;;;;;;;;-4.06;75.03;95309.63;6401458;27;19923;-62
2021/12/19 01:02:59;;;;;;;;;;;;;;;-4.19;74.89;95315.19;6401282;27;19923;-62
2021/12/19 01:06:00;;;;;;;;;;;;;;;-4.22;74.85;95298.16;6399904;27;20404;-63
2021/12/19 01:09:01;;;;;;;;;;;;;;;-4.30;75.24;95305.31;6400232;27;19966;-62
2021/12/19 01:12:04;;;;;;;;;;;;;;;-4.29;75.02;95301.84;6399458;27;20388;-62
2021/12/19 01:15:09;;;;;;;;;;;;;;;-4.28;75.26;95299.19;6400981;27;19919;-63
2021/12/19 01:18:13;;;;;;;;;;;;;;;-4.22;74.95;95303.28;6400893;27;19927;-63
2021/12/19 01:21:14;;;;;;;;;;;;;;;-4.30;75.46;95306.13;6381745;27;19923;-62
2021/12/19 01:24:15;;;;;;;;;;;;;;;-4.22;75.48;95303.28;6399686;27;19930;-62
2021/12/19 01:27:16;;;;;;;;;;;;;;;-4.25;75.22;95293.13;6399931;27;20011;-62
2021/12/19 01:30:20;;;;;;;;;;;;;;;-4.14;75.20;95301.31;6400539;27;20392;-63
2021/12/19 01:33:21;;;;;;;;;;;;;;;-4.19;75.03;95292.09;6400452;27;19923;-62
2021/12/19 01:36:22;;;;;;;;;;;;;;;-4.24;74.94;95287.13;6399410;27;20312;-62
2021/12/19 01:39:23;;;;;;;;;;;;;;;-4.23;75.26;95290.53;6400390;27;19932;-62
2021/12/19 01:42:32;;;;;;;;;;;;;;;-4.16;75.35;95295.41;6382329;27;20384;-64
2021/12/19 01:45:37;;;;;;;;;;;;;;;-4.09;75.41;95294.31;6400218;27;19923;-62
2021/12/19 01:48:41;;;;;;;;;;;;;;;-3.95;75.27;95290.47;6399040;27;19922;-62
2021/12/19 01:51:46;;;;;;;;;;;;;;;-4.03;74.64;95295.00;6399107;27;19975;-63
2021/12/19 01:54:49;;;;;;;;;;;;;;;-3.97;74.42;95287.94;6399936;27;19923;-62
2021/12/19 01:57:52;;;;;;;;;;;;;;;-3.95;74.29;95285.31;6399915;27;19923;-62
2021/12/19 02:00:55;;;;;;;;;;;;;;;-3.99;74.20;95284.59;6399045;27;19923;-62
2021/12/19 02:03:58;;;;;;;;;;;;;;;-4.10;74.77;95287.50;6399731;27;20280;-63
2021/12/19 02:07:02;;;;;;;;;;;;;;;-4.01;74.30;95282.97;6399681;27;19923;-62
2021/12/19 02:10:03;;;;;;;;;;;;;;;-3.98;74.48;95282.84;6398956;27;19923;-62
2021/12/19 02:13:08;;;;;;;;;;;;;;;-3.93;73.79;95273.28;6399611;27;19922;-63
2021/12/19 02:16:09;;;;;;;;;;;;;;;-4.28;74.41;95270.13;6399401;27;19923;-63
2021/12/19 02:19:13;;;;;;;;;;;;;;;-4.17;74.80;95272.34;6399439;27;20029;-62
2021/12/19 02:22:14;;;;;;;;;;;;;;;-4.17;74.37;95270.59;6397697;27;20303;-62
2021/12/19 02:25:16;;;;;;;;;;;;;;;-4.16;74.46;95268.88;6398544;27;19923;-63
2021/12/19 02:28:17;;;;;;;;;;;;;;;-4.29;74.42;95263.31;6398170;27;19959;-61
2021/12/19 02:31:20;;;;;;;;;;;;;;;-4.28;75.07;95260.69;6398983;27;20300;-62
2021/12/19 02:34:25;;;;;;;;;;;;;;;-4.26;75.10;95255.50;6398941;27;19975;-62
2021/12/19 02:37:57;;;;;;;;;;;;;;;-4.27;74.84;95248.69;6398772;27;19922;-62
2021/12/19 02:50:49;;;;;;;;;;;;;;;-4.26;74.36;95250.38;6397987;27;19923;-62
2021/12/19 02:53:54;;;;;;;;;;;;;;;-4.35;75.35;95258.38;6398592;27;19922;-64
2021/12/19 02:56:55;;;;;;;;;;;;;;;-4.27;74.90;95258.97;6397514;27;19930;-62
2021/12/19 02:59:56;;;;;;;;;;;;;;;-4.23;75.10;95250.28;6398284;27;19929;-62
2021/12/19 03:02:57;;;;;;;;;;;;;;;-4.37;74.98;95252.44;6397535;27;19923;-62
2021/12/19 03:05:59;;;;;;;;;;;;;;;-4.39;75.56;95238.81;6397761;27;20505;-62
2021/12/19 03:09:07;;;;;;;;;;;;;;;-4.39;75.45;95233.69;6397924;27;19923;-62
2021/12/19 03:18:41;;;;;;;;;;;;;;;-4.13;75.21;95215.69;6397696;27;20327;-62
2021/12/19 03:21:46;;;;;;;;;;;;;;;-4.04;75.17;95211.13;6396401;27;19923;-62
2021/12/19 03:24:47;;;;;;;;;;;;;;;-4.19;75.51;95208.19;6397085;27;20300;-62
2021/12/19 03:27:48;;;;;;;;;;;;;;;-4.13;75.99;95209.72;6397627;27;20304;-61
2021/12/19 03:30:49;;;;;;;;;;;;;;;-4.16;75.73;95209.78;6396331;27;20296;-63
2021/12/19 03:33:50;;;;;;;;;;;;;;;-4.13;75.46;95213.13;6396313;27;19927;-62
2021/12/19 03:36:52;;;;;;;;;;;;;;;-4.21;75.83;95217.69;6397443;27;20093;-62
2021/12/19 03:39:57;;;;;;;;;;;;;;;-4.17;76.16;95216.66;6397524;27;19952;-62
2021/12/19 03:42:58;;;;;;;;;;;;;;;-4.17;75.74;95216.66;6397579;27;19923;-63
2021/12/19 03:45:59;;;;;;;;;;;;;;;-4.17;75.86;95219.25;6397436;27;19923;-62
2021/12/19 03:49:03;;;;;;;;;;;;;;;-4.18;75.93;95212.44;6397349;27;19923;-62
2021/12/19 03:52:07;;;;;;;;;;;;;;;-4.13;75.76;95209.72;6397327;27;19923;-62
2021/12/19 03:55:08;;;;;;;;;;;;;;;-3.98;75.51;95203.22;6396866;27;20080;-62
2021/12/19 03:58:12;;;;;;;;;;;;;;;-3.97;75.27;95218.56;6397358;27;19927;-62
2021/12/19 04:01:13;;;;;;;;;;;;;;;-4.09;75.37;95212.13;6396017;27;19919;-62
2021/12/19 04:04:17;;;;;;;;;;;;;;;-3.80;75.08;95212.81;6397408;27;19923;-63
2021/12/19 04:07:18;;;;;;;;;;;;;;;-3.87;75.06;95201.09;6397440;27;19925;-63
2021/12/19 04:10:21;;;;;;;;;;;;;;;-3.88;75.36;95199.41;6378832;27;19930;-62
2021/12/19 04:13:23;;;;;;;;;;;;;;;-3.84;75.38;95206.13;6396400;27;20421;-62
2021/12/19 04:16:24;;;;;;;;;;;;;;;-3.78;75.69;95205.06;6396425;27;19923;-62
2021/12/19 04:19:26;;;;;;;;;;;;;;;-3.83;75.48;95202.66;6378530;27;19930;-61
2021/12/19 04:22:27;;;;;;;;;;;;;;;-3.92;75.60;95203.00;6396397;27;19923;-63
2021/12/19 04:25:28;;;;;;;;;;;;;;;-3.92;75.38;95198.69;6397137;27;20380;-63
2021/12/19 04:28:29;;;;;;;;;;;;;;;-3.79;75.70;95188.81;6396792;27;20142;-62
2021/12/19 04:31:30;;;;;;;;;;;;;;;-3.71;75.70;95197.09;6396988;27;19923;-62
2021/12/19 04:34:35;;;;;;;;;;;;;;;-3.41;75.29;95189.97;6396016;27;20211;-63
2021/12/19 05:00:39;;;;;;;;;;;;;;;-3.47;76.08;95194.53;6400502;27;19969;-63
2021/12/19 05:03:49;;;;;;;;;;;;;;;-3.43;75.85;95178.06;6397661;27;19923;-62
2021/12/19 05:16:52;;;;;;;;;;;;;;;-3.09;75.99;95189.66;6401115;27;19930;-63
2021/12/19 05:23:17;;;;;;;;;;;;;;;-3.23;75.92;95178.19;6400575;27;19923;-65
2021/12/19 05:26:19;;;;;;;;;;;;;;;-3.11;76.09;95165.72;6399258;27;19923;-63
2021/12/19 05:29:27;;;;;;;;;;;;;;;-2.84;75.68;95166.38;6400476;27;19923;-64
2021/12/19 05:32:30;;;;;;;;;;;;;;;-2.78;75.88;95159.25;6399956;27;19923;-65
2021/12/19 05:35:53;;;;;;;;;;;;;;;-2.80;75.50;95160.19;6399943;27;19926;-64
2021/12/19 05:45:33;;;;;;;;;;;;;;;-2.53;73.62;95151.38;6399457;27;20312;-63
2021/12/19 05:48:34;;;;;;;;;;;;;;;-2.58;74.66;95152.47;6398761;27;20013;-62
2021/12/19 05:51:38;;;;;;;;;;;;;;;-2.53;74.67;95158.25;6399975;27;19923;-63
2021/12/19 05:54:39;;;;;;;;;;;;;;;-2.33;74.25;95167.75;6399503;27;20348;-63
2021/12/19 05:57:43;;;;;;;;;;;;;;;-2.42;73.93;95166.38;6397741;27;19927;-62
2021/12/19 06:00:45;;;;;;;;;;;;;;;-2.36;74.34;95165.28;6399776;27;20296;-63
2021/12/19 06:03:46;;;;;;;;;;;;;;;-2.09;73.31;95165.88;6399817;27;19923;-63
2021/12/19 06:06:51;;;;;;;;;;;;;;;-2.07;73.42;95146.88;6399768;27;19927;-64
2021/12/19 06:09:52;;;;;;;;;;;;;;;-2.29;73.24;95157.25;6398278;27;19958;-64
2021/12/19 06:12:53;;;;;;;;;;;;;;;-2.41;73.63;95154.34;6398306;27;20069;-63
2021/12/19 06:15:57;;;;;;;;;;;;;;;-2.38;74.63;95152.47;6399317;27;20440;-62
2021/12/19 06:18:58;;;;;;;;;;;;;;;-2.31;74.17;95153.06;6398657;27;19923;-63
2021/12/19 06:21:59;;;;;;;;;;;;;;;-2.04;72.75;95154.47;6398464;27;19960;-64
2021/12/19 06:25:01;;;;;;;;;;;;;;;-2.16;73.58;95151.56;6398049;27;20421;-63
2021/12/19 06:28:03;;;;;;;;;;;;;;;-2.19;73.43;95157.69;6398192;27;19930;-63
2021/12/19 06:31:05;;;;;;;;;;;;;;;-2.17;73.55;95160.22;6399004;27;19923;-62
2021/12/19 06:34:08;;;;;;;;;;;;;;;-2.10;73.94;95152.13;6397838;27;19923;-62
2021/12/19 06:37:10;;;;;;;;;;;;;;;-2.00;73.20;95152.59;6397752;27;19976;-63
2021/12/19 06:40:13;;;;;;;;;;;;;;;-2.01;73.61;95145.75;6398403;27;19930;-62
2021/12/19 06:43:16;;;;;;;;;;;;;;;-2.06;73.59;95150.28;6397703;27;19923;-63
2021/12/19 06:46:20;;;;;;;;;;;;;;;-2.03;73.28;95147.56;6398220;27;20367;-62
2021/12/19 06:49:21;;;;;;;;;;;;;;;-1.70;73.46;95140.13;6398361;27;19930;-62
2021/12/19 06:52:22;;;;;;;;;;;;;;;-1.71;72.47;95142.75;6397360;27;19934;-63
2021/12/19 06:55:23;;;;;;;;;;;;;;;-1.68;72.82;95138.28;6398147;27;19922;-62
2021/12/19 06:58:27;;;;;;;;;;;;;;;-1.52;72.88;95138.44;6380141;27;20396;-63
2021/12/19 07:01:28;;;;;;;;;;;;;;;-1.36;72.77;95144.59;6396788;27;19923;-63
2021/12/19 07:04:29;;;;;;;;;;;;;;;-1.18;71.93;95139.47;6396770;27;20301;-63
2021/12/19 07:07:33;;;;;;;;;;;;;;;-1.24;71.72;95142.34;6396490;27;20015;-63
2021/12/19 07:10:34;;;;;;;;;;;;;;;-1.25;70.94;95150.97;6397385;27;19992;-62
2021/12/19 07:13:37;;;;;;;;;;;;;;;-1.18;71.23;95142.06;6397503;27;19923;-64
2021/12/19 07:16:41;;;;;;;;;;;;;;;-0.96;70.26;95150.47;6397043;27;20411;-63
2021/12/19 07:19:44;;;;;;;;;;;;;;;-1.11;69.55;95143.44;6396501;27;20451;-63
2021/12/19 07:22:47;;;;;;;;;;;;;;;-1.18;70.31;95131.72;6397200;27;19923;-63
2021/12/19 07:25:49;;;;;;;;;;;;;;;-1.32;71.16;95127.22;6396083;27;19923;-63
2021/12/19 07:28:50;;;;;;;;;;;;;;;-1.26;71.25;95129.50;6396596;27;19983;-64
2021/12/19 07:31:51;;;;;;;;;;;;;;;-1.19;71.07;95132.63;6397492;27;19934;-63
2021/12/19 07:34:53;;;;;;;;;;;;;;;-1.07;70.07;95133.81;6396647;27;20410;-64
2021/12/19 07:37:57;;;;;;;;;;;;;;;-1.15;70.93;95136.75;6396955;27;19923;-63
2021/12/19 07:40:59;;;;;;;;;;;;;;;-1.08;70.40;95127.78;6396730;27;20383;-63
2021/12/19 07:44:00;;;;;;;;;;;;;;;-1.38;71.34;95125.75;6395938;27;19927;-64
2021/12/19 07:47:01;;;;;;;;;;;;;;;-1.19;71.56;95118.00;6395755;27;20383;-63
2021/12/19 07:50:02;;;;;;;;;;;;;;;-1.11;71.53;95117.63;6395195;27;19930;-64
2021/12/19 07:53:04;;;;;;;;;;;;;;;-0.99;71.50;95124.81;6396797;27;19930;-64
2021/12/19 07:56:07;;;;;;;;;;;;;;;-1.09;70.95;95126.13;6396982;27;19923;-63
2021/12/19 07:59:08;;;;;;;;;;;;;;;-0.93;70.96;95126.25;6396668;27;19929;-63
2021/12/19 08:02:10;;;;;;;;;;;;;;;-0.82;70.10;95124.00;6395652;27;19927;-63
2021/12/19 08:05:12;;;;;;;;;;;;;;;-0.83;69.94;95122.31;6396436;27;19931;-62
2021/12/19 08:08:25;;;;;;;;;;;;;;;-0.87;70.24;95127.72;6395809;27;19931;-63
2021/12/19 08:11:42;;;;;;;;;;;;;;;-1.08;71.10;95125.22;6396643;27;20407;-63
2021/12/19 08:14:45;;;;;;;;;;;;;;;-1.06;71.15;95123.41;6396115;27;19930;-63
2021/12/19 08:17:48;;;;;;;;;;;;;;;-1.01;71.28;95121.44;6396593;27;21595;-63
2021/12/19 08:20:52;;;;;;;;;;;;;;;-0.76;70.20;95122.88;6399354;27;19926;-63
2021/12/19 08:24:01;;;;;;;;;;;;;;;-0.84;69.97;95112.06;6401605;27;19923;-62
2021/12/19 08:27:03;;;;;;;;;;;;;;;-0.81;70.88;95119.66;6401882;27;20415;-63
2021/12/19 08:30:07;;;;;;;;;;;;;;;-0.83;70.56;95111.16;6401499;27;20315;-63
2021/12/19 08:33:10;;;;;;;;;;;;;;;-0.82;70.72;95102.47;6401490;27;19934;-63
2021/12/19 08:36:12;;;;;;;;;;;;;;;-0.84;70.83;95099.16;6400819;27;19923;-62
2021/12/19 08:39:14;;;;;;;;;;;;;;;-0.85;71.06;95092.28;6400559;27;19967;-64
2021/12/19 08:42:15;;;;;;;;;;;;;;;-0.71;71.21;95084.72;6400586;27;20388;-63
2021/12/19 08:45:17;;;;;;;;;;;;;;;-0.74;70.34;95074.53;6400799;27;19926;-63
2021/12/19 08:48:20;;;;;;;;;;;;;;;-0.64;70.70;95088.69;6401448;27;19927;-63
2021/12/19 08:51:26;;;;;;;;;;;;;;;-0.59;70.19;95073.78;6401223;27;19927;-62
2021/12/19 08:54:27;;;;;;;;;;;;;;;-0.68;70.49;95076.81;6401075;27;19930;-63
2021/12/19 08:57:31;;;;;;;;;;;;;;;-0.61;70.33;95080.78;6400462;27;19953;-63
2021/12/19 09:00:34;;;;;;;;;;;;;;;-0.55;70.58;95088.22;6401142;27;19922;-62
2021/12/19 09:03:36;;;;;;;;;;;;;;;-0.66;70.90;95087.09;6400463;27;20085;-63
2021/12/19 09:06:38;;;;;;;;;;;;;;;-0.60;71.37;95077.28;6400654;27;20363;-64
2021/12/19 09:09:43;;;;;;;;;;;;;;;-0.55;71.25;95075.28;6400084;27;19930;-65
2021/12/19 09:12:44;;;;;;;;;;;;;;;-0.75;71.43;95067.72;6400588;27;19923;-62
2021/12/19 09:15:49;;;;;;;;;;;;;;;-0.68;71.22;95084.56;6400203;27;19999;-64
2021/12/19 09:18:51;;;;;;;;;;;;;;;-0.69;71.05;95077.72;6400664;27;19949;-63
2021/12/19 09:21:52;;;;;;;;;;;;;;;-0.69;71.94;95077.72;6400485;27;19923;-63
2021/12/19 09:24:58;;;;;;;;;;;;;;;-0.72;71.31;95088.22;6400422;27;20403;-66
2021/12/19 09:27:59;;;;;;;;;;;;;;;-0.72;71.86;95077.88;6399712;27;19918;-62
2021/12/19 09:31:00;;;;;;;;;;;;;;;-0.74;73.05;95071.94;6400107;27;20374;-62
2021/12/19 09:34:06;;;;;;;;;;;;;;;-0.62;72.17;95071.38;6399855;27;20013;-63
2021/12/19 09:37:13;;;;;;;;;;;;;;;-0.60;71.52;95066.94;6400252;27;20392;-63
2021/12/19 09:40:22;;;;;;;;;;;;;;;-0.53;71.78;95068.31;6399534;27;19954;-64
2021/12/19 09:43:42;;;;;;;;;;;;;;;-0.58;71.73;95064.28;6399638;27;20384;-64
2021/12/19 09:46:45;;;;;;;;;;;;;;;-0.63;72.82;95061.94;6398979;27;19923;-63
2021/12/19 09:49:48;;;;;;;;;;;;;;;-0.72;72.95;95064.97;6399703;27;19923;-63
2021/12/19 09:52:50;;;;;;;;;;;;;;;-0.56;72.34;95057.31;6399279;27;19934;-62
2021/12/19 09:55:51;;;;;;;;;;;;;;;-0.47;72.20;95065.41;6380648;27;19919;-63
2021/12/19 09:58:53;;;;;;;;;;;;;;;-0.58;71.87;95049.63;6399645;27;19922;-64
2021/12/19 10:01:54;;;;;;;;;;;;;;;-0.67;72.38;95060.41;6399816;27;19919;-63
2021/12/19 10:05:12;;;;;;;;;;;;;;;-0.55;72.27;95062.38;6399520;27;19923;-63
2021/12/19 10:08:22;;;;;;;;;;;;;;;-0.17;71.12;95054.44;6399163;27;19923;-63
2021/12/19 10:12:25;;;;;;;;;;;;;;;-0.18;70.54;95046.75;6398617;27;19923;-63
2021/12/19 10:14:54;;;;;;;;;;;;;;;-0.19;70.59;95039.94;6384657;27;19930;-62
2021/12/19 10:18:17;;;;;;;;;;;;;;;-0.26;71.14;95041.97;6399374;27;19930;-63
2021/12/19 10:21:19;;;;;;;;;;;;;;;-0.20;70.11;95044.22;6398939;27;19961;-63
2021/12/19 10:24:33;;;;;;;;;;;;;;;-0.42;70.67;95038.53;6399085;27;19923;-63
2021/12/19 10:27:38;;;;;;;;;;;;;;;-0.56;72.07;95046.97;6399076;27;20300;-64
2021/12/19 10:30:43;;;;;;;;;;;;;;;-0.49;71.50;95049.16;6398297;27;19923;-63
2021/12/19 10:33:47;;;;;;;;;;;;;;;-0.46;71.12;95053.31;6398958;27;19922;-63
2021/12/19 10:36:51;;;;;;;;;;;;;;;-0.35;70.62;95047.63;6398592;27;19934;-63
2021/12/19 10:39:52;;;;;;;;;;;;;;;-0.34;70.27;95047.56;6398586;27;19923;-63
2021/12/19 10:42:55;;;;;;;;;;;;;;;-0.31;70.76;95041.38;6397174;27;19970;-63
2021/12/19 10:46:00;;;;;;;;;;;;;;;-0.48;70.66;95043.09;6398626;27;19923;-63
2021/12/19 10:49:03;;;;;;;;;;;;;;;-0.38;70.39;95025.34;6397634;27;19930;-63
2021/12/19 10:52:05;;;;;;;;;;;;;;;-0.46;71.75;95028.31;6397497;27;19923;-63
2021/12/19 10:55:10;;;;;;;;;;;;;;;-0.51;71.47;95032.91;6398133;27;20022;-64
2021/12/19 10:58:34;;;;;;;;;;;;;;;-0.56;71.42;95045.22;6398206;27;19930;-63
2021/12/19 11:01:37;;;;;;;;;;;;;;;-0.30;70.77;95053.41;6385120;27;19923;-63
2021/12/19 11:04:40;;;;;;;;;;;;;;;-0.34;70.21;95044.97;6398372;27;19927;-63
2021/12/19 11:07:58;;;;;;;;;;;;;;;-0.29;69.98;95045.53;6397626;27;19999;-62
2021/12/19 11:10:59;;;;;;;;;;;;;;;-0.26;69.98;95060.06;6397404;27;19923;-63
2021/12/19 11:14:02;;;;;;;;;;;;;;;-0.35;70.59;95047.63;6397710;27;19941;-62
2021/12/19 11:17:04;;;;;;;;;;;;;;;-0.31;70.88;95059.47;6398059;27;20288;-62
2021/12/19 11:20:05;;;;;;;;;;;;;;;-0.36;70.25;95064.06;6397170;27;19929;-63
2021/12/19 11:23:09;;;;;;;;;;;;;;;-0.43;70.81;95073.00;6397536;27;20364;-63
2021/12/19 11:26:12;;;;;;;;;;;;;;;-0.53;71.54;95076.06;6379655;27;19923;-62
2021/12/19 11:29:16;;;;;;;;;;;;;;;-0.60;71.36;95066.09;6396888;27;19933;-64
2021/12/19 11:32:20;;;;;;;;;;;;;;;-0.51;71.47;95066.50;6396921;27;20410;-64
2021/12/19 11:35:25;;;;;;;;;;;;;;;-0.32;71.03;95075.88;6397686;27;19923;-63
2021/12/19 11:38:29;;;;;;;;;;;;;;;-0.48;71.40;95057.75;6397682;27;19919;-63
2021/12/19 11:41:34;;;;;;;;;;;;;;;-0.35;71.03;95045.03;6396650;27;19923;-63
2021/12/19 11:44:36;;;;;;;;;;;;;;;-0.46;70.72;95041.25;6396730;27;20080;-64
2021/12/19 11:47:41;;;;;;;;;;;;;;;-0.47;71.16;95031.84;6397310;27;19923;-64
2021/12/19 11:50:49;;;;;;;;;;;;;;;-0.61;70.98;95029.13;6396005;27;19926;-62
2021/12/19 11:53:50;;;;;;;;;;;;;;;-0.64;72.00;95041.34;6397239;27;19929;-63
2021/12/19 11:57:10;;;;;;;;;;;;;;;-0.87;71.92;95038.16;6396711;27;20334;-63
2021/12/19 12:00:27;;;;;;;;;;;;;;;-0.73;71.69;95035.72;6396290;27;20303;-63
2021/12/19 12:03:33;;;;;;;;;;;;;;;-0.94;72.06;95032.44;6397211;27;20414;-63
2021/12/19 12:06:39;;;;;;;;;;;;;;;-1.23;73.07;95030.47;6395703;27;20380;-62
2021/12/19 12:09:54;;;;;;;;;;;;;;;-1.31;73.54;95027.41;6395848;27;20027;-63
2021/12/19 12:12:55;;;;;;;;;;;;;;;-1.32;73.88;95023.19;6396120;27;20400;-62
2021/12/19 12:16:24;;;;;;;;;;;;;;;-1.48;73.97;95016.16;6397063;27;19923;-62
2021/12/19 12:19:43;;;;;;;;;;;;;;;-1.55;73.54;95030.25;6396612;27;19923;-62
2021/12/19 12:22:54;;;;;;;;;;;;;;;-1.65;74.47;95034.16;6397056;27;20330;-63
2021/12/19 12:26:20;;;;;;;;;;;;;;;-1.60;74.14;95038.19;6396795;27;19929;-63
2021/12/19 12:29:21;;;;;;;;;;;;;;;-1.65;74.25;95022.09;6396454;27;19923;-63
2021/12/19 12:32:23;;;;;;;;;;;;;;;-1.65;74.13;95023.84;6395879;27;19923;-61
2021/12/19 12:35:28;;;;;;;;;;;;;;;-1.53;74.24;95018.09;6397020;27;19929;-63
2021/12/19 12:38:29;;;;;;;;;;;;;;;-1.18;73.38;95028.50;6396164;27;19923;-62
2021/12/19 12:41:53;;;;;;;;;;;;;;;-1.05;73.69;95020.97;6396095;27;19919;-61
2021/12/19 12:45:01;;;;;;;;;;;;;;;-0.85;73.09;95026.03;6396926;27;19967;-63
2021/12/19 12:48:02;;;;;;;;;;;;;;;-1.02;72.57;95029.44;6396917;27;20418;-64
2021/12/19 12:51:09;;;;;;;;;;;;;;;-1.00;73.06;95022.44;6378511;27;20295;-63
2021/12/19 12:54:12;;;;;;;;;;;;;;;-0.95;72.98;95024.81;6396401;27;19996;-62
2021/12/19 12:57:16;;;;;;;;;;;;;;;-0.96;73.33;95026.56;6395741;27;19946;-63
2021/12/19 13:00:21;;;;;;;;;;;;;;;-0.95;72.99;95025.63;6396463;27;19927;-62
2021/12/19 13:03:30;;;;;;;;;;;;;;;-1.00;72.93;95021.59;6396590;27;19923;-63
2021/12/19 13:06:48;;;;;;;;;;;;;;;-1.05;73.13;95016.66;6398410;27;19931;-65
2021/12/19 13:09:57;;;;;;;;;;;;;;;-1.02;73.29;95019.13;6399937;27;19934;-63
2021/12/19 13:13:06;;;;;;;;;;;;;;;-0.91;72.43;95026.31;6400956;27;20410;-63
2021/12/19 13:16:10;;;;;;;;;;;;;;;-1.00;72.90;95016.44;6401033;27;20391;-65
2021/12/19 13:19:31;;;;;;;;;;;;;;;-0.70;71.91;95035.59;6400116;27;19930;-62
2021/12/19 13:22:38;;;;;;;;;;;;;;;-0.67;71.74;95034.59;6399630;27;19923;-63
2021/12/19 13:25:42;;;;;;;;;;;;;;;-0.78;71.00;95021.38;6400565;27;19923;-62
2021/12/19 13:28:48;;;;;;;;;;;;;;;-0.70;71.45;95016.66;6400649;27;19923;-63
2021/12/19 13:31:52;;;;;;;;;;;;;;;-0.65;71.16;95022.44;6400231;27;19923;-63
2021/12/19 13:35:00;;;;;;;;;;;;;;;-0.77;71.72;95007.53;6400735;27;19935;-62
2021/12/19 13:38:04;;;;;;;;;;;;;;;-0.78;71.75;95024.78;6399994;27;20009;-63
2021/12/19 13:41:06;;;;;;;;;;;;;;;-1.07;73.37;95028.81;6399343;27;19931;-63
2021/12/19 13:44:09;;;;;;;;;;;;;;;-1.11;73.14;95039.34;6399330;27;19930;-63
2021/12/19 13:47:11;;;;;;;;;;;;;;;-1.30;74.05;95039.41;6399684;27;20067;-62
2021/12/19 13:50:12;;;;;;;;;;;;;;;-1.07;73.45;95046.88;6400099;27;19930;-63
2021/12/19 13:53:14;;;;;;;;;;;;;;;-1.07;74.23;95044.31;6399180;27;19923;-63
2021/12/19 13:56:15;;;;;;;;;;;;;;;-1.08;73.66;95034.88;6399163;27;20426;-62
2021/12/19 13:59:24;;;;;;;;;;;;;;;-1.21;74.47;95038.97;6400137;27;20013;-62
2021/12/19 14:02:25;;;;;;;;;;;;;;;-1.10;74.43;95031.56;6399021;27;19930;-61
2021/12/19 14:05:33;;;;;;;;;;;;;;;-1.21;74.57;95028.66;6399914;27;19923;-63
2021/12/19 14:08:38;;;;;;;;;;;;;;;-1.15;74.88;95039.50;6398900;27;19976;-63
2021/12/19 14:11:43;;;;;;;;;;;;;;;-1.24;75.39;95028.81;6398883;27;19937;-63
2021/12/19 14:14:44;;;;;;;;;;;;;;;-1.13;75.08;95032.53;6399560;27;19952;-63
2021/12/19 14:17:45;;;;;;;;;;;;;;;-1.11;74.97;95014.38;6398510;27;19930;-63
2021/12/19 14:20:51;;;;;;;;;;;;;;;-1.08;74.37;95009.06;6381232;27;19927;-64
2021/12/19 14:24:12;;;;;;;;;;;;;;;-1.16;74.63;94996.56;6399142;27;19923;-62
2021/12/19 14:27:20;;;;;;;;;;;;;;;-1.07;75.21;95005.59;6399021;27;19923;-64
2021/12/19 14:30:22;;;;;;;;;;;;;;;-1.07;74.81;95005.59;6397911;27;19930;-67
2021/12/19 14:33:29;;;;;;;;;;;;;;;-1.01;74.74;95005.28;6398903;27;19923;-63
2021/12/19 14:36:31;;;;;;;;;;;;;;;-0.84;75.18;95008.78;6398750;27;19923;-64
2021/12/19 14:39:32;;;;;;;;;;;;;;;-0.91;75.72;95003.06;6398509;27;20304;-63
2021/12/19 14:42:37;;;;;;;;;;;;;;;-0.95;75.63;95009.31;6398661;27;19923;-64
2021/12/19 14:45:48;;;;;;;;;;;;;;;-0.98;76.00;95019.78;6398571;27;20395;-64
2021/12/19 14:48:49;;;;;;;;;;;;;;;-0.91;76.17;95027.16;6397364;27;19930;-63
2021/12/19 14:51:58;;;;;;;;;;;;;;;-0.96;76.33;95033.47;6397671;27;19923;-63
2021/12/19 14:55:10;;;;;;;;;;;;;;;-0.85;75.99;95020.00;6398263;27;20392;-64
2021/12/19 14:58:14;;;;;;;;;;;;;;;-0.75;76.55;95034.97;6398503;27;19930;-64
2021/12/19 15:01:20;;;;;;;;;;;;;;;-0.81;75.90;95019.78;6398349;27;20307;-63
2021/12/19 15:04:23;;;;;;;;;;;;;;;-0.80;76.19;95024.03;6397584;27;20379;-64
2021/12/19 15:07:26;;;;;;;;;;;;;;;-0.71;75.91;95015.84;6398280;27;19930;-65
2021/12/19 15:10:30;;;;;;;;;;;;;;;-0.72;76.28;95015.91;6397711;27;19973;-63
2021/12/19 15:13:33;;;;;;;;;;;;;;;-0.64;76.19;95003.44;6397896;27;20388;-64
2021/12/19 15:16:35;;;;;;;;;;;;;;;-0.69;76.31;95015.75;6397000;27;19926;-62
2021/12/19 15:19:39;;;;;;;;;;;;;;;-0.68;76.35;95028.59;6397787;27;19923;-64
2021/12/19 15:22:41;;;;;;;;;;;;;;;-0.66;76.37;95031.09;6397129;27;19983;-62
2021/12/19 15:25:47;;;;;;;;;;;;;;;-0.70;76.21;95037.34;6397720;27;19930;-63
2021/12/19 15:28:49;;;;;;;;;;;;;;;-0.59;76.72;95029.88;6396101;27;19934;-65
2021/12/19 15:31:52;;;;;;;;;;;;;;;-0.66;76.44;95041.41;6395866;27;19927;-63
2021/12/19 15:34:53;;;;;;;;;;;;;;;-0.62;76.04;95032.63;6397377;27;19929;-63
2021/12/19 15:37:54;;;;;;;;;;;;;;;-0.66;76.17;95028.50;6397165;27;19923;-63
2021/12/19 15:40:57;;;;;;;;;;;;;;;-0.56;75.67;95037.47;6396580;27;19923;-64
2021/12/19 15:44:01;;;;;;;;;;;;;;;-0.56;75.52;95034.88;6396580;27;20308;-68
2021/12/19 15:47:07;;;;;;;;;;;;;;;-0.54;75.79;95038.25;6397073;27;19953;-67
2021/12/19 15:50:09;;;;;;;;;;;;;;;-0.56;75.46;95027.13;6396839;27;19923;-67
2021/12/19 15:53:12;;;;;;;;;;;;;;;-0.64;76.14;95029.28;6396318;27;19964;-68
2021/12/19 15:56:13;;;;;;;;;;;;;;;-0.66;75.25;95036.25;6396571;27;19923;-67
2021/12/19 15:59:14;;;;;;;;;;;;;;;-0.64;75.79;95038.78;6396827;27;20436;-67
2021/12/19 16:02:18;;;;;;;;;;;;;;;-0.56;75.48;95037.47;6396200;27;19930;-67
2021/12/19 16:05:21;;;;;;;;;;;;;;;-0.60;75.79;95041.09;6396829;27;19927;-67
2021/12/19 16:08:25;;;;;;;;;;;;;;;-0.65;75.86;95047.41;6397267;27;19930;-68
2021/12/19 16:11:26;;;;;;;;;;;;;;;-0.66;75.49;95045.75;6396981;27;19923;-67
2021/12/19 16:14:27;;;;;;;;;;;;;;;-0.72;75.93;95050.31;6397357;27;20036;-65
2021/12/19 16:17:28;;;;;;;;;;;;;;;-0.72;75.42;95042.56;6397137;27;20421;-67
2021/12/19 16:20:32;;;;;;;;;;;;;;;-0.80;75.70;95056.75;6397118;27;20021;-67
2021/12/19 16:23:33;;;;;;;;;;;;;;;-0.83;75.73;95038.84;6396457;27;19930;-67
2021/12/19 16:26:34;;;;;;;;;;;;;;;-0.85;75.97;95038.06;6395740;27;19975;-67
2021/12/19 16:29:36;;;;;;;;;;;;;;;-0.96;76.30;95054.13;6396080;27;19923;-67
2021/12/19 16:32:39;;;;;;;;;;;;;;;-0.94;76.45;95045.34;6396838;27;19923;-67
2021/12/19 16:35:41;;;;;;;;;;;;;;;-0.96;77.09;95049.78;6396597;27;19930;-66
2021/12/19 16:38:43;;;;;;;;;;;;;;;-1.05;77.18;95045.03;6395798;27;19926;-66
2021/12/19 16:41:48;;;;;;;;;;;;;;;-1.17;77.88;95055.97;6397388;27;19923;-67
2021/12/19 16:44:53;;;;;;;;;;;;;;;-1.18;77.54;95062.06;6401355;27;19927;-65
2021/12/19 16:47:55;;;;;;;;;;;;;;;-1.14;76.98;95074.72;6399999;27;19923;-65
2021/12/19 16:51:01;;;;;;;;;;;;;;;-1.21;77.56;95064.78;6401435;27;19923;-63
2021/12/19 16:54:04;;;;;;;;;;;;;;;-1.16;77.62;95078.28;6400628;27;19923;-63
2021/12/19 16:57:11;;;;;;;;;;;;;;;-1.18;77.24;95074.97;6401458;27;20312;-64
2021/12/19 17:00:15;;;;;;;;;;;;;;;-1.27;77.75;95075.41;6382022;27;19996;-64
2021/12/19 17:03:17;;;;;;;;;;;;;;;-1.19;78.31;95081.88;6401007;27;19923;-65
2021/12/19 17:06:19;;;;;;;;;;;;;;;-1.10;77.63;95077.16;6400505;27;19927;-65
2021/12/19 17:09:23;;;;;;;;;;;;;;;-0.96;77.29;95083.34;6401280;27;19937;-64